sensor_id;sensor_type;location;lat;lon;timestamp;P1;durP1;ratioP1;P2;durP2;ratioP2
70806;SDS011;58882;52.170;5.386;2023-07-08T00:00:17;6.72;;;2.90;;
70806;SDS011;58882;52.170;5.386;2023-07-08T00:02:58;5.85;;;2.70;;
70806;SDS011;58882;52.170;5.386;2023-07-08T00:05:45;5.75;;;2.55;;
70806;SDS011;58882;52.170;5.386;2023-07-08T00:08:27;4.85;;;2.35;;
70806;SDS011;58882;52.170;5.386;2023-07-08T00:11:14;5.47;;;2.40;;
70806;SDS011;58882;52.170;5.386;2023-07-08T00:13:56;6.22;;;2.67;;
70806;SDS011;58882;52.170;5.386;2023-07-08T00:16:43;5.07;;;2.60;;
70806;SDS011;58882;52.170;5.386;2023-07-08T00:19:24;7.10;;;2.67;;
70806;SDS011;58882;52.170;5.386;2023-07-08T00:22:11;5.57;;;2.75;;
70806;SDS011;58882;52.170;5.386;2023-07-08T00:24:53;4.70;;;2.75;;
70806;SDS011;58882;52.170;5.386;2023-07-08T00:27:40;5.10;;;2.60;;
70806;SDS011;58882;52.170;5.386;2023-07-08T00:33:11;5.40;;;2.50;;
70806;SDS011;58882;52.170;5.386;2023-07-08T00:35:51;4.63;;;2.50;;
70806;SDS011;58882;52.170;5.386;2023-07-08T00:38:38;4.97;;;2.45;;
70806;SDS011;58882;52.170;5.386;2023-07-08T00:44:25;4.55;;;2.30;;
70806;SDS011;58882;52.170;5.386;2023-07-08T00:47:08;5.65;;;2.70;;
70806;SDS011;58882;52.170;5.386;2023-07-08T00:49:57;6.20;;;2.50;;
70806;SDS011;58882;52.170;5.386;2023-07-08T00:52:44;5.22;;;2.38;;
70806;SDS011;58882;52.170;5.386;2023-07-08T00:55:32;5.60;;;2.72;;
70806;SDS011;58882;52.170;5.386;2023-07-08T00:58:12;5.15;;;2.60;;
70806;SDS011;58882;52.170;5.386;2023-07-08T01:00:59;5.65;;;2.78;;
70806;SDS011;58882;52.170;5.386;2023-07-08T01:03:52;6.32;;;2.47;;
70806;SDS011;58882;52.170;5.386;2023-07-08T01:06:41;6.53;;;2.78;;
70806;SDS011;58882;52.170;5.386;2023-07-08T01:09:27;5.55;;;2.83;;
70806;SDS011;58882;52.170;5.386;2023-07-08T01:12:21;6.45;;;2.50;;
70806;SDS011;58882;52.170;5.386;2023-07-08T01:15:06;5.97;;;2.70;;
70806;SDS011;58882;52.170;5.386;2023-07-08T01:17:55;5.07;;;2.45;;
70806;SDS011;58882;52.170;5.386;2023-07-08T01:20:35;5.18;;;2.70;;
70806;SDS011;58882;52.170;5.386;2023-07-08T01:23:22;4.95;;;2.50;;
70806;SDS011;58882;52.170;5.386;2023-07-08T01:26:03;5.25;;;2.65;;
70806;SDS011;58882;52.170;5.386;2023-07-08T01:28:50;5.53;;;2.50;;
70806;SDS011;58882;52.170;5.386;2023-07-08T01:31:32;5.55;;;2.72;;
70806;SDS011;58882;52.170;5.386;2023-07-08T01:34:19;5.05;;;2.83;;
70806;SDS011;58882;52.170;5.386;2023-07-08T01:37:00;5.25;;;2.47;;
70806;SDS011;58882;52.170;5.386;2023-07-08T01:39:50;5.65;;;2.80;;
70806;SDS011;58882;52.170;5.386;2023-07-08T01:42:30;5.70;;;2.85;;
70806;SDS011;58882;52.170;5.386;2023-07-08T01:45:18;5.63;;;2.67;;
70806;SDS011;58882;52.170;5.386;2023-07-08T01:48:01;5.57;;;2.78;;
70806;SDS011;58882;52.170;5.386;2023-07-08T01:51:01;5.47;;;2.50;;
70806;SDS011;58882;52.170;5.386;2023-07-08T01:53:43;6.15;;;2.83;;
70806;SDS011;58882;52.170;5.386;2023-07-08T01:56:31;5.22;;;2.63;;
70806;SDS011;58882;52.170;5.386;2023-07-08T01:59:11;6.45;;;2.70;;
70806;SDS011;58882;52.170;5.386;2023-07-08T02:01:58;6.25;;;2.63;;
70806;SDS011;58882;52.170;5.386;2023-07-08T02:04:38;6.05;;;2.95;;
70806;SDS011;58882;52.170;5.386;2023-07-08T02:07:25;5.82;;;3.00;;
70806;SDS011;58882;52.170;5.386;2023-07-08T02:10:05;6.07;;;2.63;;
70806;SDS011;58882;52.170;5.386;2023-07-08T02:12:53;5.72;;;2.70;;
70806;SDS011;58882;52.170;5.386;2023-07-08T02:15:33;7.85;;;3.03;;
70806;SDS011;58882;52.170;5.386;2023-07-08T02:18:20;4.97;;;2.60;;
70806;SDS011;58882;52.170;5.386;2023-07-08T02:21:00;7.07;;;3.08;;
70806;SDS011;58882;52.170;5.386;2023-07-08T02:23:49;6.47;;;2.85;;
70806;SDS011;58882;52.170;5.386;2023-07-08T02:26:31;4.90;;;2.67;;
70806;SDS011;58882;52.170;5.386;2023-07-08T02:29:18;5.25;;;2.72;;
70806;SDS011;58882;52.170;5.386;2023-07-08T02:31:58;6.53;;;2.90;;
70806;SDS011;58882;52.170;5.386;2023-07-08T02:34:45;6.22;;;2.85;;
70806;SDS011;58882;52.170;5.386;2023-07-08T02:37:25;5.93;;;2.65;;
70806;SDS011;58882;52.170;5.386;2023-07-08T02:40:19;5.72;;;2.92;;
70806;SDS011;58882;52.170;5.386;2023-07-08T02:42:53;6.97;;;2.72;;
70806;SDS011;58882;52.170;5.386;2023-07-08T02:45:48;7.40;;;2.80;;
70806;SDS011;58882;52.170;5.386;2023-07-08T02:48:46;7.82;;;2.92;;
70806;SDS011;58882;52.170;5.386;2023-07-08T02:51:26;5.93;;;2.70;;
70806;SDS011;58882;52.170;5.386;2023-07-08T02:54:14;5.47;;;2.63;;
70806;SDS011;58882;52.170;5.386;2023-07-08T02:56:54;5.55;;;2.88;;
70806;SDS011;58882;52.170;5.386;2023-07-08T02:59:41;4.70;;;2.67;;
70806;SDS011;58882;52.170;5.386;2023-07-08T03:02:21;4.65;;;2.50;;
70806;SDS011;58882;52.170;5.386;2023-07-08T03:05:16;5.75;;;2.80;;
70806;SDS011;58882;52.170;5.386;2023-07-08T03:07:49;6.90;;;3.00;;
70806;SDS011;58882;52.170;5.386;2023-07-08T03:10:45;5.60;;;2.78;;
70806;SDS011;58882;52.170;5.386;2023-07-08T03:13:20;5.88;;;2.70;;
70806;SDS011;58882;52.170;5.386;2023-07-08T03:16:14;5.57;;;2.88;;
70806;SDS011;58882;52.170;5.386;2023-07-08T03:18:47;5.90;;;3.10;;
70806;SDS011;58882;52.170;5.386;2023-07-08T03:21:41;5.18;;;2.70;;
70806;SDS011;58882;52.170;5.386;2023-07-08T03:24:15;5.13;;;2.80;;
70806;SDS011;58882;52.170;5.386;2023-07-08T03:27:10;4.72;;;2.60;;
70806;SDS011;58882;52.170;5.386;2023-07-08T03:29:44;5.40;;;2.95;;
70806;SDS011;58882;52.170;5.386;2023-07-08T03:32:39;6.75;;;2.70;;
70806;SDS011;58882;52.170;5.386;2023-07-08T03:35:19;5.32;;;2.80;;
70806;SDS011;58882;52.170;5.386;2023-07-08T03:38:06;6.75;;;2.88;;
70806;SDS011;58882;52.170;5.386;2023-07-08T03:40:39;5.72;;;2.65;;
70806;SDS011;58882;52.170;5.386;2023-07-08T03:43:33;5.78;;;2.50;;
70806;SDS011;58882;52.170;5.386;2023-07-08T03:46:07;6.85;;;3.10;;
70806;SDS011;58882;52.170;5.386;2023-07-08T03:49:05;5.75;;;2.70;;
70806;SDS011;58882;52.170;5.386;2023-07-08T03:51:39;6.20;;;2.90;;
70806;SDS011;58882;52.170;5.386;2023-07-08T03:54:35;5.25;;;2.80;;
70806;SDS011;58882;52.170;5.386;2023-07-08T03:57:09;5.63;;;2.90;;
70806;SDS011;58882;52.170;5.386;2023-07-08T04:00:03;4.90;;;2.42;;
70806;SDS011;58882;52.170;5.386;2023-07-08T04:02:43;5.85;;;2.80;;
70806;SDS011;58882;52.170;5.386;2023-07-08T04:05:39;5.45;;;2.80;;
70806;SDS011;58882;52.170;5.386;2023-07-08T04:08:12;6.15;;;2.78;;
70806;SDS011;58882;52.170;5.386;2023-07-08T04:11:06;5.63;;;2.85;;
70806;SDS011;58882;52.170;5.386;2023-07-08T04:13:48;4.40;;;2.53;;
70806;SDS011;58882;52.170;5.386;2023-07-08T04:19:27;4.32;;;2.53;;
70806;SDS011;58882;52.170;5.386;2023-07-08T04:22:14;5.05;;;2.70;;
70806;SDS011;58882;52.170;5.386;2023-07-08T04:24:47;5.78;;;3.00;;
70806;SDS011;58882;52.170;5.386;2023-07-08T04:27:41;7.40;;;2.88;;
70806;SDS011;58882;52.170;5.386;2023-07-08T04:30:22;6.13;;;2.65;;
70806;SDS011;58882;52.170;5.386;2023-07-08T04:33:12;5.20;;;2.75;;
70806;SDS011;58882;52.170;5.386;2023-07-08T04:35:46;5.68;;;3.00;;
70806;SDS011;58882;52.170;5.386;2023-07-08T04:38:41;6.18;;;3.35;;
70806;SDS011;58882;52.170;5.386;2023-07-08T04:41:21;5.15;;;2.70;;
70806;SDS011;58882;52.170;5.386;2023-07-08T04:44:08;6.00;;;2.85;;
70806;SDS011;58882;52.170;5.386;2023-07-08T04:46:53;4.90;;;2.90;;
70806;SDS011;58882;52.170;5.386;2023-07-08T04:52:29;5.50;;;2.67;;
70806;SDS011;58882;52.170;5.386;2023-07-08T04:55:16;6.40;;;2.97;;
70806;SDS011;58882;52.170;5.386;2023-07-08T04:57:56;6.03;;;3.10;;
70806;SDS011;58882;52.170;5.386;2023-07-08T05:00:43;5.43;;;2.80;;
70806;SDS011;58882;52.170;5.386;2023-07-08T05:03:23;5.60;;;2.78;;
70806;SDS011;58882;52.170;5.386;2023-07-08T05:06:10;5.90;;;2.83;;
70806;SDS011;58882;52.170;5.386;2023-07-08T05:08:43;6.15;;;3.33;;
70806;SDS011;58882;52.170;5.386;2023-07-08T05:11:37;5.40;;;2.97;;
70806;SDS011;58882;52.170;5.386;2023-07-08T05:14:11;6.57;;;2.60;;
70806;SDS011;58882;52.170;5.386;2023-07-08T05:17:06;4.65;;;2.67;;
70806;SDS011;58882;52.170;5.386;2023-07-08T05:19:39;5.45;;;2.55;;
70806;SDS011;58882;52.170;5.386;2023-07-08T05:22:36;7.15;;;3.13;;
70806;SDS011;58882;52.170;5.386;2023-07-08T05:25:17;5.93;;;2.90;;
70806;SDS011;58882;52.170;5.386;2023-07-08T05:28:07;6.00;;;2.83;;
70806;SDS011;58882;52.170;5.386;2023-07-08T05:30:47;5.43;;;3.05;;
70806;SDS011;58882;52.170;5.386;2023-07-08T05:33:45;5.97;;;2.97;;
70806;SDS011;58882;52.170;5.386;2023-07-08T05:36:25;7.15;;;3.08;;
70806;SDS011;58882;52.170;5.386;2023-07-08T05:39:19;5.68;;;2.63;;
70806;SDS011;58882;52.170;5.386;2023-07-08T05:42:21;5.70;;;3.08;;
70806;SDS011;58882;52.170;5.386;2023-07-08T05:45:15;5.82;;;2.88;;
70806;SDS011;58882;52.170;5.386;2023-07-08T05:47:55;4.75;;;2.60;;
70806;SDS011;58882;52.170;5.386;2023-07-08T05:50:42;6.53;;;3.10;;
70806;SDS011;58882;52.170;5.386;2023-07-08T05:53:24;6.75;;;2.90;;
70806;SDS011;58882;52.170;5.386;2023-07-08T05:56:18;6.60;;;3.03;;
70806;SDS011;58882;52.170;5.386;2023-07-08T05:58:58;5.63;;;2.83;;
70806;SDS011;58882;52.170;5.386;2023-07-08T06:01:45;5.60;;;3.05;;
70806;SDS011;58882;52.170;5.386;2023-07-08T06:04:25;4.60;;;2.55;;
70806;SDS011;58882;52.170;5.386;2023-07-08T06:07:12;5.53;;;2.80;;
70806;SDS011;58882;52.170;5.386;2023-07-08T06:09:52;6.65;;;2.85;;
70806;SDS011;58882;52.170;5.386;2023-07-08T06:12:42;5.90;;;2.90;;
70806;SDS011;58882;52.170;5.386;2023-07-08T06:15:15;5.78;;;2.95;;
70806;SDS011;58882;52.170;5.386;2023-07-08T06:18:09;6.10;;;3.00;;
70806;SDS011;58882;52.170;5.386;2023-07-08T06:20:50;6.38;;;2.88;;
70806;SDS011;58882;52.170;5.386;2023-07-08T06:23:45;5.75;;;2.72;;
70806;SDS011;58882;52.170;5.386;2023-07-08T06:26:18;5.10;;;2.78;;
70806;SDS011;58882;52.170;5.386;2023-07-08T06:29:12;5.75;;;2.90;;
70806;SDS011;58882;52.170;5.386;2023-07-08T06:31:52;4.63;;;2.85;;
70806;SDS011;58882;52.170;5.386;2023-07-08T06:34:39;6.95;;;2.85;;
70806;SDS011;58882;52.170;5.386;2023-07-08T06:37:19;5.88;;;2.92;;
70806;SDS011;58882;52.170;5.386;2023-07-08T06:40:07;5.43;;;2.85;;
70806;SDS011;58882;52.170;5.386;2023-07-08T06:42:41;5.35;;;2.55;;
70806;SDS011;58882;52.170;5.386;2023-07-08T06:46:07;5.13;;;2.60;;
70806;SDS011;58882;52.170;5.386;2023-07-08T06:51:41;4.38;;;2.60;;
70806;SDS011;58882;52.170;5.386;2023-07-08T06:54:15;5.18;;;2.90;;
70806;SDS011;58882;52.170;5.386;2023-07-08T06:57:09;5.50;;;2.83;;
70806;SDS011;58882;52.170;5.386;2023-07-08T06:59:49;5.20;;;2.80;;
70806;SDS011;58882;52.170;5.386;2023-07-08T07:02:36;6.63;;;3.08;;
70806;SDS011;58882;52.170;5.386;2023-07-08T07:05:16;7.05;;;2.90;;
70806;SDS011;58882;52.170;5.386;2023-07-08T07:08:03;6.57;;;2.83;;
70806;SDS011;58882;52.170;5.386;2023-07-08T07:10:44;5.07;;;2.53;;
70806;SDS011;58882;52.170;5.386;2023-07-08T07:13:31;6.82;;;3.15;;
70806;SDS011;58882;52.170;5.386;2023-07-08T07:16:12;7.95;;;2.80;;
70806;SDS011;58882;52.170;5.386;2023-07-08T07:19:06;5.72;;;2.90;;
70806;SDS011;58882;52.170;5.386;2023-07-08T07:21:46;6.40;;;2.75;;
70806;SDS011;58882;52.170;5.386;2023-07-08T07:24:33;5.35;;;2.50;;
70806;SDS011;58882;52.170;5.386;2023-07-08T07:27:13;5.68;;;2.80;;
70806;SDS011;58882;52.170;5.386;2023-07-08T07:30:07;6.35;;;3.13;;
70806;SDS011;58882;52.170;5.386;2023-07-08T07:32:42;5.93;;;2.90;;
70806;SDS011;58882;52.170;5.386;2023-07-08T07:35:36;5.22;;;2.92;;
70806;SDS011;58882;52.170;5.386;2023-07-08T07:38:18;5.78;;;2.90;;
70806;SDS011;58882;52.170;5.386;2023-07-08T07:41:15;6.03;;;3.00;;
70806;SDS011;58882;52.170;5.386;2023-07-08T07:43:48;5.53;;;3.20;;
70806;SDS011;58882;52.170;5.386;2023-07-08T07:46:42;6.97;;;2.88;;
70806;SDS011;58882;52.170;5.386;2023-07-08T07:49:22;5.88;;;2.70;;
70806;SDS011;58882;52.170;5.386;2023-07-08T07:52:09;4.60;;;2.42;;
70806;SDS011;58882;52.170;5.386;2023-07-08T07:54:54;6.32;;;3.13;;
70806;SDS011;58882;52.170;5.386;2023-07-08T07:57:41;5.00;;;2.53;;
70806;SDS011;58882;52.170;5.386;2023-07-08T08:00:21;5.72;;;2.65;;
70806;SDS011;58882;52.170;5.386;2023-07-08T08:03:10;5.35;;;2.78;;
70806;SDS011;58882;52.170;5.386;2023-07-08T08:05:53;6.82;;;2.80;;
70806;SDS011;58882;52.170;5.386;2023-07-08T08:08:40;5.38;;;2.80;;
70806;SDS011;58882;52.170;5.386;2023-07-08T08:11:20;6.80;;;3.00;;
70806;SDS011;58882;52.170;5.386;2023-07-08T08:14:07;5.32;;;2.70;;
70806;SDS011;58882;52.170;5.386;2023-07-08T08:16:47;7.32;;;2.80;;
70806;SDS011;58882;52.170;5.386;2023-07-08T08:19:41;5.80;;;2.72;;
70806;SDS011;58882;52.170;5.386;2023-07-08T08:22:14;4.95;;;2.40;;
70806;SDS011;58882;52.170;5.386;2023-07-08T08:25:08;5.07;;;2.40;;
70806;SDS011;58882;52.170;5.386;2023-07-08T08:27:49;5.60;;;2.88;;
70806;SDS011;58882;52.170;5.386;2023-07-08T08:30:36;5.60;;;2.60;;
70806;SDS011;58882;52.170;5.386;2023-07-08T08:33:16;5.60;;;3.10;;
70806;SDS011;58882;52.170;5.386;2023-07-08T08:36:05;5.10;;;2.60;;
70806;SDS011;58882;52.170;5.386;2023-07-08T08:38:45;6.60;;;2.90;;
70806;SDS011;58882;52.170;5.386;2023-07-08T08:41:40;5.35;;;2.90;;
70806;SDS011;58882;52.170;5.386;2023-07-08T08:44:27;5.22;;;2.60;;
70806;SDS011;58882;52.170;5.386;2023-07-08T08:50:31;4.88;;;2.60;;
70806;SDS011;58882;52.170;5.386;2023-07-08T08:53:13;5.18;;;2.70;;
70806;SDS011;58882;52.170;5.386;2023-07-08T08:56:13;5.90;;;2.70;;
70806;SDS011;58882;52.170;5.386;2023-07-08T09:01:56;5.85;;;2.90;;
70806;SDS011;58882;52.170;5.386;2023-07-08T09:04:32;5.57;;;2.72;;
70806;SDS011;58882;52.170;5.386;2023-07-08T09:07:29;5.03;;;2.80;;
70806;SDS011;58882;52.170;5.386;2023-07-08T09:10:25;5.63;;;2.75;;
70806;SDS011;58882;52.170;5.386;2023-07-08T09:13:17;6.07;;;3.00;;
70806;SDS011;58882;52.170;5.386;2023-07-08T09:19:14;6.32;;;3.17;;
70806;SDS011;58882;52.170;5.386;2023-07-08T09:24:56;5.38;;;2.67;;
70806;SDS011;58882;52.170;5.386;2023-07-08T09:27:38;5.93;;;3.17;;
70806;SDS011;58882;52.170;5.386;2023-07-08T09:30:32;4.65;;;2.70;;
70806;SDS011;58882;52.170;5.386;2023-07-08T09:33:12;5.47;;;2.85;;
70806;SDS011;58882;52.170;5.386;2023-07-08T09:35:59;6.53;;;2.97;;
70806;SDS011;58882;52.170;5.386;2023-07-08T09:38:40;6.88;;;2.92;;
70806;SDS011;58882;52.170;5.386;2023-07-08T09:41:28;5.95;;;3.17;;
70806;SDS011;58882;52.170;5.386;2023-07-08T09:44:15;6.35;;;3.20;;
70806;SDS011;58882;52.170;5.386;2023-07-08T09:47:19;5.45;;;3.00;;
70806;SDS011;58882;52.170;5.386;2023-07-08T09:53:04;6.85;;;3.35;;
70806;SDS011;58882;52.170;5.386;2023-07-08T09:55:44;4.78;;;2.75;;
70806;SDS011;58882;52.170;5.386;2023-07-08T09:58:40;6.68;;;3.10;;
70806;SDS011;58882;52.170;5.386;2023-07-08T10:01:23;7.57;;;3.00;;
70806;SDS011;58882;52.170;5.386;2023-07-08T10:04:12;5.82;;;3.00;;
70806;SDS011;58882;52.170;5.386;2023-07-08T10:06:46;5.75;;;3.20;;
70806;SDS011;58882;52.170;5.386;2023-07-08T10:09:40;5.95;;;3.35;;
70806;SDS011;58882;52.170;5.386;2023-07-08T10:12:13;7.78;;;3.50;;
70806;SDS011;58882;52.170;5.386;2023-07-08T10:15:15;8.95;;;3.30;;
70806;SDS011;58882;52.170;5.386;2023-07-08T10:17:54;6.30;;;3.30;;
70806;SDS011;58882;52.170;5.386;2023-07-08T10:23:48;5.70;;;3.42;;
70806;SDS011;58882;52.170;5.386;2023-07-08T10:26:57;6.35;;;3.00;;
70806;SDS011;58882;52.170;5.386;2023-07-08T10:54:05;7.38;;;3.83;;
70806;SDS011;58882;52.170;5.386;2023-07-08T11:00:16;8.02;;;3.72;;
70806;SDS011;58882;52.170;5.386;2023-07-08T11:06:11;9.32;;;4.00;;
70806;SDS011;58882;52.170;5.386;2023-07-08T11:09:10;7.10;;;4.00;;
70806;SDS011;58882;52.170;5.386;2023-07-08T11:11:49;7.40;;;3.80;;
70806;SDS011;58882;52.170;5.386;2023-07-08T11:14:52;7.30;;;3.58;;
70806;SDS011;58882;52.170;5.386;2023-07-08T11:17:53;7.18;;;3.85;;
70806;SDS011;58882;52.170;5.386;2023-07-08T11:23:56;7.70;;;4.18;;
70806;SDS011;58882;52.170;5.386;2023-07-08T11:27:01;8.15;;;3.90;;
70806;SDS011;58882;52.170;5.386;2023-07-08T11:33:02;8.60;;;4.07;;
70806;SDS011;58882;52.170;5.386;2023-07-08T11:35:52;7.32;;;3.90;;
70806;SDS011;58882;52.170;5.386;2023-07-08T11:38:37;8.75;;;3.97;;
70806;SDS011;58882;52.170;5.386;2023-07-08T11:41:40;9.88;;;3.97;;
70806;SDS011;58882;52.170;5.386;2023-07-08T11:44:20;8.23;;;4.30;;
70806;SDS011;58882;52.170;5.386;2023-07-08T11:47:18;7.05;;;4.00;;
70806;SDS011;58882;52.170;5.386;2023-07-08T11:50:08;8.10;;;4.32;;
70806;SDS011;58882;52.170;5.386;2023-07-08T11:53:14;8.40;;;4.25;;
70806;SDS011;58882;52.170;5.386;2023-07-08T11:56:24;8.43;;;4.07;;
70806;SDS011;58882;52.170;5.386;2023-07-08T11:59:19;8.15;;;4.03;;
70806;SDS011;58882;52.170;5.386;2023-07-08T12:04:58;7.97;;;4.40;;
70806;SDS011;58882;52.170;5.386;2023-07-08T12:08:12;7.88;;;4.47;;
70806;SDS011;58882;52.170;5.386;2023-07-08T12:10:51;8.27;;;4.22;;
70806;SDS011;58882;52.170;5.386;2023-07-08T12:13:46;9.32;;;4.63;;
70806;SDS011;58882;52.170;5.386;2023-07-08T12:16:19;8.85;;;4.47;;
70806;SDS011;58882;52.170;5.386;2023-07-08T12:19:13;8.23;;;4.45;;
70806;SDS011;58882;52.170;5.386;2023-07-08T12:21:50;8.18;;;4.30;;
70806;SDS011;58882;52.170;5.386;2023-07-08T12:24:45;7.72;;;4.40;;
70806;SDS011;58882;52.170;5.386;2023-07-08T12:27:18;8.43;;;4.22;;
70806;SDS011;58882;52.170;5.386;2023-07-08T12:30:12;8.10;;;4.45;;
70806;SDS011;58882;52.170;5.386;2023-07-08T12:32:47;9.25;;;4.43;;
70806;SDS011;58882;52.170;5.386;2023-07-08T12:35:42;8.05;;;4.43;;
70806;SDS011;58882;52.170;5.386;2023-07-08T12:38:37;8.05;;;4.03;;
70806;SDS011;58882;52.170;5.386;2023-07-08T12:41:18;8.38;;;4.22;;
70806;SDS011;58882;52.170;5.386;2023-07-08T12:44:22;9.05;;;4.72;;
70806;SDS011;58882;52.170;5.386;2023-07-08T12:47:12;9.20;;;4.78;;
70806;SDS011;58882;52.170;5.386;2023-07-08T12:50:07;8.15;;;4.18;;
70806;SDS011;58882;52.170;5.386;2023-07-08T12:52:49;8.07;;;4.40;;
70806;SDS011;58882;52.170;5.386;2023-07-08T12:55:37;8.60;;;4.53;;
70806;SDS011;58882;52.170;5.386;2023-07-08T12:58:29;10.30;;;4.78;;
70806;SDS011;58882;52.170;5.386;2023-07-08T13:01:05;9.40;;;4.65;;
70806;SDS011;58882;52.170;5.386;2023-07-08T13:04:02;10.13;;;4.75;;
70806;SDS011;58882;52.170;5.386;2023-07-08T13:06:45;8.55;;;4.50;;
70806;SDS011;58882;52.170;5.386;2023-07-08T13:09:37;8.55;;;4.40;;
70806;SDS011;58882;52.170;5.386;2023-07-08T13:12:22;9.70;;;4.68;;
70806;SDS011;58882;52.170;5.386;2023-07-08T13:15:13;10.25;;;4.63;;
70806;SDS011;58882;52.170;5.386;2023-07-08T13:17:59;7.60;;;4.22;;
70806;SDS011;58882;52.170;5.386;2023-07-08T13:20:51;8.95;;;4.47;;
70806;SDS011;58882;52.170;5.386;2023-07-08T13:23:33;9.63;;;4.97;;
70806;SDS011;58882;52.170;5.386;2023-07-08T13:26:22;9.85;;;4.68;;
70806;SDS011;58882;52.170;5.386;2023-07-08T13:29:13;10.60;;;4.68;;
70806;SDS011;58882;52.170;5.386;2023-07-08T13:32:09;8.82;;;4.43;;
70806;SDS011;58882;52.170;5.386;2023-07-08T13:34:50;9.82;;;4.68;;
70806;SDS011;58882;52.170;5.386;2023-07-08T13:37:44;8.95;;;4.60;;
70806;SDS011;58882;52.170;5.386;2023-07-08T13:40:21;8.52;;;4.65;;
70806;SDS011;58882;52.170;5.386;2023-07-08T13:43:15;9.45;;;5.07;;
70806;SDS011;58882;52.170;5.386;2023-07-08T13:45:51;9.27;;;4.93;;
70806;SDS011;58882;52.170;5.386;2023-07-08T13:48:45;9.63;;;4.72;;
70806;SDS011;58882;52.170;5.386;2023-07-08T13:51:29;8.80;;;4.63;;
70806;SDS011;58882;52.170;5.386;2023-07-08T13:54:20;8.98;;;5.00;;
70806;SDS011;58882;52.170;5.386;2023-07-08T13:57:01;10.10;;;4.78;;
70806;SDS011;58882;52.170;5.386;2023-07-08T13:59:55;9.57;;;4.50;;
70806;SDS011;58882;52.170;5.386;2023-07-08T14:02:43;9.43;;;4.75;;
70806;SDS011;58882;52.170;5.386;2023-07-08T14:05:32;10.18;;;4.60;;
70806;SDS011;58882;52.170;5.386;2023-07-08T14:08:13;9.85;;;4.75;;
70806;SDS011;58882;52.170;5.386;2023-07-08T14:11:02;9.63;;;4.53;;
70806;SDS011;58882;52.170;5.386;2023-07-08T14:13:42;8.38;;;4.43;;
70806;SDS011;58882;52.170;5.386;2023-07-08T14:16:29;10.75;;;5.03;;
70806;SDS011;58882;52.170;5.386;2023-07-08T14:19:31;8.35;;;4.22;;
70806;SDS011;58882;52.170;5.386;2023-07-08T14:22:27;12.18;;;5.05;;
70806;SDS011;58882;52.170;5.386;2023-07-08T14:25:09;9.70;;;4.97;;
70806;SDS011;58882;52.170;5.386;2023-07-08T14:28:00;11.23;;;5.07;;
70806;SDS011;58882;52.170;5.386;2023-07-08T14:30:44;9.95;;;4.57;;
70806;SDS011;58882;52.170;5.386;2023-07-08T14:33:41;10.38;;;4.82;;
70806;SDS011;58882;52.170;5.386;2023-07-08T14:36:14;10.27;;;4.68;;
70806;SDS011;58882;52.170;5.386;2023-07-08T14:39:12;10.45;;;4.57;;
70806;SDS011;58882;52.170;5.386;2023-07-08T14:41:53;11.68;;;4.97;;
70806;SDS011;58882;52.170;5.386;2023-07-08T14:44:40;9.50;;;4.70;;
70806;SDS011;58882;52.170;5.386;2023-07-08T14:47:21;8.95;;;4.38;;
70806;SDS011;58882;52.170;5.386;2023-07-08T14:50:15;9.57;;;4.80;;
70806;SDS011;58882;52.170;5.386;2023-07-08T14:52:48;9.23;;;4.80;;
70806;SDS011;58882;52.170;5.386;2023-07-08T14:55:43;11.77;;;5.07;;
70806;SDS011;58882;52.170;5.386;2023-07-08T14:58:26;9.32;;;4.65;;
70806;SDS011;58882;52.170;5.386;2023-07-08T15:01:19;9.43;;;4.60;;
70806;SDS011;58882;52.170;5.386;2023-07-08T15:04:08;10.25;;;4.47;;
70806;SDS011;58882;52.170;5.386;2023-07-08T15:07:04;10.15;;;4.75;;
70806;SDS011;58882;52.170;5.386;2023-07-08T15:09:47;10.93;;;4.20;;
70806;SDS011;58882;52.170;5.386;2023-07-08T15:12:34;10.10;;;4.50;;
70806;SDS011;58882;52.170;5.386;2023-07-08T15:15:15;9.68;;;4.22;;
70806;SDS011;58882;52.170;5.386;2023-07-08T15:18:12;9.60;;;4.47;;
70806;SDS011;58882;52.170;5.386;2023-07-08T15:20:53;10.13;;;4.90;;
70806;SDS011;58882;52.170;5.386;2023-07-08T15:23:47;8.88;;;4.50;;
70806;SDS011;58882;52.170;5.386;2023-07-08T15:26:27;9.88;;;4.70;;
70806;SDS011;58882;52.170;5.386;2023-07-08T15:29:21;9.48;;;4.65;;
70806;SDS011;58882;52.170;5.386;2023-07-08T15:31:56;9.93;;;4.60;;
70806;SDS011;58882;52.170;5.386;2023-07-08T15:35:14;8.70;;;4.45;;
70806;SDS011;58882;52.170;5.386;2023-07-08T15:37:58;9.25;;;4.30;;
70806;SDS011;58882;52.170;5.386;2023-07-08T15:40:45;9.73;;;4.82;;
70806;SDS011;58882;52.170;5.386;2023-07-08T15:43:25;9.60;;;4.68;;
70806;SDS011;58882;52.170;5.386;2023-07-08T15:46:13;9.43;;;4.75;;
70806;SDS011;58882;52.170;5.386;2023-07-08T15:49:15;9.73;;;4.93;;
70806;SDS011;58882;52.170;5.386;2023-07-08T15:51:50;10.40;;;4.38;;
70806;SDS011;58882;52.170;5.386;2023-07-08T15:54:44;10.60;;;5.05;;
70806;SDS011;58882;52.170;5.386;2023-07-08T15:57:24;9.70;;;4.25;;
70806;SDS011;58882;52.170;5.386;2023-07-08T16:00:15;9.38;;;4.68;;
70806;SDS011;58882;52.170;5.386;2023-07-08T16:02:54;10.15;;;4.47;;
70806;SDS011;58882;52.170;5.386;2023-07-08T16:05:51;10.10;;;4.93;;
70806;SDS011;58882;52.170;5.386;2023-07-08T16:08:25;9.45;;;5.20;;
70806;SDS011;58882;52.170;5.386;2023-07-08T16:11:22;11.20;;;4.85;;
70806;SDS011;58882;52.170;5.386;2023-07-08T16:14:10;10.45;;;4.97;;
70806;SDS011;58882;52.170;5.386;2023-07-08T16:17:08;12.48;;;5.60;;
70806;SDS011;58882;52.170;5.386;2023-07-08T16:19:43;12.52;;;5.03;;
70806;SDS011;58882;52.170;5.386;2023-07-08T16:22:37;9.48;;;4.85;;
70806;SDS011;58882;52.170;5.386;2023-07-08T16:25:26;9.57;;;5.05;;
70806;SDS011;58882;52.170;5.386;2023-07-08T16:28:35;10.77;;;5.38;;
70806;SDS011;58882;52.170;5.386;2023-07-08T16:34:14;9.32;;;4.53;;
70806;SDS011;58882;52.170;5.386;2023-07-08T16:36:47;9.90;;;5.22;;
70806;SDS011;58882;52.170;5.386;2023-07-08T16:39:41;9.63;;;4.80;;
70806;SDS011;58882;52.170;5.386;2023-07-08T16:42:14;12.77;;;5.72;;
70806;SDS011;58882;52.170;5.386;2023-07-08T16:45:10;10.57;;;4.72;;
70806;SDS011;58882;52.170;5.386;2023-07-08T16:47:46;9.35;;;4.90;;
70806;SDS011;58882;52.170;5.386;2023-07-08T16:50:41;10.77;;;4.88;;
70806;SDS011;58882;52.170;5.386;2023-07-08T16:53:21;12.38;;;5.20;;
70806;SDS011;58882;52.170;5.386;2023-07-08T16:56:11;9.13;;;4.47;;
70806;SDS011;58882;52.170;5.386;2023-07-08T16:58:52;12.40;;;5.43;;
70806;SDS011;58882;52.170;5.386;2023-07-08T17:01:40;10.50;;;4.85;;
70806;SDS011;58882;52.170;5.386;2023-07-08T17:04:34;9.75;;;4.47;;
70806;SDS011;58882;52.170;5.386;2023-07-08T17:07:09;10.98;;;5.03;;
70806;SDS011;58882;52.170;5.386;2023-07-08T17:10:04;10.40;;;5.40;;
70806;SDS011;58882;52.170;5.386;2023-07-08T17:12:44;8.63;;;4.70;;
70806;SDS011;58882;52.170;5.386;2023-07-08T17:15:32;11.50;;;5.40;;
70806;SDS011;58882;52.170;5.386;2023-07-08T17:18:17;10.27;;;5.15;;
70806;SDS011;58882;52.170;5.386;2023-07-08T17:21:12;9.55;;;5.00;;
70806;SDS011;58882;52.170;5.386;2023-07-08T17:23:53;11.02;;;5.10;;
70806;SDS011;58882;52.170;5.386;2023-07-08T17:26:40;9.70;;;5.25;;
70806;SDS011;58882;52.170;5.386;2023-07-08T17:29:20;9.50;;;4.93;;
70806;SDS011;58882;52.170;5.386;2023-07-08T17:32:07;11.10;;;5.40;;
70806;SDS011;58882;52.170;5.386;2023-07-08T17:34:51;11.02;;;5.63;;
70806;SDS011;58882;52.170;5.386;2023-07-08T17:37:39;10.02;;;5.00;;
70806;SDS011;58882;52.170;5.386;2023-07-08T17:40:23;11.55;;;5.50;;
70806;SDS011;58882;52.170;5.386;2023-07-08T17:43:12;10.23;;;5.32;;
70806;SDS011;58882;52.170;5.386;2023-07-08T17:45:52;11.23;;;5.32;;
70806;SDS011;58882;52.170;5.386;2023-07-08T17:48:39;12.13;;;5.80;;
70806;SDS011;58882;52.170;5.386;2023-07-08T17:51:25;10.63;;;5.50;;
70806;SDS011;58882;52.170;5.386;2023-07-08T17:54:14;13.35;;;5.57;;
70806;SDS011;58882;52.170;5.386;2023-07-08T17:56:55;10.35;;;5.20;;